createdAt,value
2022-10-30T00:00:42.773Z,0.79
2022-10-30T00:01:46.153Z,0.82
2022-10-30T00:02:49.757Z,0.89
2022-10-30T00:03:52.724Z,0.88
2022-10-30T00:04:55.913Z,0.80
2022-10-30T00:05:59.095Z,0.71
2022-10-30T00:07:02.276Z,0.71
2022-10-30T00:08:05.379Z,0.78
2022-10-30T00:09:08.639Z,0.78
2022-10-30T00:10:11.718Z,0.88
2022-10-30T00:11:14.707Z,0.91
2022-10-30T00:12:18.077Z,0.91
2022-10-30T00:13:21.697Z,0.78
2022-10-30T00:14:24.750Z,1.01
2022-10-30T00:15:28.030Z,1.18
2022-10-30T00:16:31.312Z,1.08
2022-10-30T00:17:34.732Z,1.05
2022-10-30T00:18:38.002Z,1.21
2022-10-30T00:19:40.875Z,1.13
2022-10-30T00:20:43.948Z,1.14
2022-10-30T00:21:47.027Z,0.92
2022-10-30T00:22:50.093Z,1.05
2022-10-30T00:23:53.383Z,0.93
2022-10-30T00:24:56.461Z,1.08
2022-10-30T00:25:59.904Z,1.01
2022-10-30T00:27:02.799Z,0.88
2022-10-30T00:28:05.900Z,1.00
2022-10-30T00:29:10.319Z,0.96
2022-10-30T00:30:13.753Z,1.06
2022-10-30T00:31:16.987Z,1.02
2022-10-30T00:32:21.110Z,1.01
2022-10-30T00:33:24.511Z,1.01
2022-10-30T00:34:27.456Z,1.02
2022-10-30T00:35:30.757Z,1.05
2022-10-30T00:36:34.429Z,1.04
2022-10-30T00:37:37.727Z,0.82
2022-10-30T00:38:40.701Z,0.78
2022-10-30T00:39:44.186Z,0.84
2022-10-30T00:40:47.465Z,0.95
2022-10-30T00:41:50.549Z,0.92
2022-10-30T00:42:54.057Z,0.98
2022-10-30T00:43:57.320Z,1.16
2022-10-30T00:45:00.393Z,0.97
2022-10-30T00:46:03.476Z,1.18
2022-10-30T00:47:06.663Z,1.10
2022-10-30T00:48:09.944Z,1.04
2022-10-30T00:49:13.032Z,0.90
2022-10-30T00:50:16.215Z,0.95
2022-10-30T00:51:19.604Z,1.06
2022-10-30T00:52:23.185Z,0.98
2022-10-30T00:53:26.897Z,0.99
2022-10-30T00:54:30.264Z,0.88
2022-10-30T00:55:33.344Z,0.72
2022-10-30T00:56:36.736Z,0.90
2022-10-30T00:57:40.120Z,0.98
2022-10-30T00:58:43.554Z,1.26
2022-10-30T00:59:46.690Z,1.24
2022-10-30T01:00:50.072Z,1.08
2022-10-30T01:01:53.396Z,0.96
2022-10-30T01:02:56.795Z,1.12
2022-10-30T01:03:59.923Z,1.02
2022-10-30T01:05:03.096Z,1.15
2022-10-30T01:06:06.187Z,1.20
2022-10-30T01:07:09.475Z,1.13
2022-10-30T01:08:13.022Z,1.06
2022-10-30T01:09:16.471Z,1.08
2022-10-30T01:10:20.144Z,1.14
2022-10-30T01:11:23.596Z,1.00
2022-10-30T01:12:27.020Z,0.92
2022-10-30T01:13:30.099Z,0.99
2022-10-30T01:14:33.175Z,1.01
2022-10-30T01:15:36.169Z,1.09
2022-10-30T01:16:39.533Z,1.14
2022-10-30T01:17:42.509Z,0.83
2022-10-30T01:18:45.701Z,0.86
2022-10-30T01:19:48.969Z,1.19
2022-10-30T01:20:51.755Z,1.35
2022-10-30T01:21:54.931Z,1.22
2022-10-30T01:22:58.371Z,1.07
2022-10-30T01:24:01.413Z,0.85
2022-10-30T01:25:04.329Z,1.05
2022-10-30T01:26:07.453Z,1.19
2022-10-30T01:27:10.663Z,1.26
2022-10-30T01:28:13.926Z,1.05
2022-10-30T01:29:16.800Z,1.08
2022-10-30T01:30:20.302Z,1.23
2022-10-30T01:31:23.266Z,1.18
2022-10-30T01:32:26.248Z,1.37
2022-10-30T01:33:29.534Z,1.34
2022-10-30T01:34:32.600Z,1.12
2022-10-30T01:35:36.405Z,1.25
2022-10-30T01:36:39.617Z,1.06
2022-10-30T01:37:42.124Z,1.28
2022-10-30T01:38:44.657Z,1.12
2022-10-30T01:39:47.539Z,0.99
2022-10-30T01:40:50.209Z,1.12
2022-10-30T01:41:55.445Z,1.28
2022-10-30T01:42:59.092Z,1.24
2022-10-30T01:44:02.064Z,1.30
2022-10-30T01:45:05.347Z,1.11
2022-10-30T01:46:08.542Z,1.26
2022-10-30T01:47:11.821Z,1.24
2022-10-30T01:48:15.415Z,1.18
2022-10-30T01:49:19.076Z,1.28
2022-10-30T01:50:22.178Z,1.08
2022-10-30T01:51:25.559Z,1.14
2022-10-30T01:52:28.751Z,1.25
2022-10-30T01:53:32.034Z,0.96
2022-10-30T01:54:35.203Z,1.16
2022-10-30T01:55:38.699Z,1.15
2022-10-30T01:56:42.153Z,1.18
2022-10-30T01:57:45.590Z,1.22
2022-10-30T01:58:48.698Z,1.37
2022-10-30T01:59:51.832Z,1.15
2022-10-30T02:00:55.122Z,1.09
2022-10-30T02:01:59.060Z,0.95
2022-10-30T02:03:02.442Z,1.05
2022-10-30T02:04:05.851Z,1.29
2022-10-30T02:05:08.777Z,1.28
2022-10-30T02:06:11.944Z,1.26
2022-10-30T02:07:15.137Z,1.18
2022-10-30T02:08:18.124Z,1.25
2022-10-30T02:09:21.185Z,1.18
2022-10-30T02:10:24.468Z,1.38
2022-10-30T02:11:28.169Z,1.32
2022-10-30T02:12:31.661Z,1.42
2022-10-30T02:13:34.648Z,1.33
2022-10-30T02:14:37.507Z,1.31
2022-10-30T02:15:40.381Z,1.18
2022-10-30T02:16:43.566Z,1.22
2022-10-30T02:17:46.641Z,1.19
2022-10-30T02:18:50.045Z,1.07
2022-10-30T02:19:53.416Z,1.03
2022-10-30T02:20:56.188Z,1.20
2022-10-30T02:21:59.148Z,1.10
2022-10-30T02:23:03.301Z,1.12
2022-10-30T02:24:06.608Z,1.21
2022-10-30T02:25:09.895Z,0.99
2022-10-30T02:26:13.219Z,0.98
2022-10-30T02:27:16.717Z,1.11
2022-10-30T02:28:19.781Z,0.95
2022-10-30T02:29:22.564Z,0.98
2022-10-30T02:30:25.753Z,0.93
2022-10-30T02:31:28.514Z,1.01
2022-10-30T02:32:31.594Z,1.29
2022-10-30T02:33:35.024Z,1.04
2022-10-30T02:34:37.971Z,1.08
2022-10-30T02:35:40.939Z,1.02
2022-10-30T02:36:44.121Z,0.91
2022-10-30T02:37:46.999Z,0.97
2022-10-30T02:38:50.172Z,1.11
2022-10-30T02:39:53.463Z,0.82
2022-10-30T02:40:56.226Z,0.90
2022-10-30T02:41:59.315Z,1.03
2022-10-30T02:43:02.602Z,1.01
2022-10-30T02:44:05.782Z,1.10
2022-10-30T02:45:08.655Z,0.98
2022-10-30T02:46:11.526Z,0.97
2022-10-30T02:47:14.712Z,0.95
2022-10-30T02:48:17.694Z,1.01
2022-10-30T02:49:20.982Z,0.98
2022-10-30T02:50:24.255Z,1.00
2022-10-30T02:51:27.335Z,0.92
2022-10-30T02:52:30.212Z,1.22
2022-10-30T02:53:33.295Z,0.89
2022-10-30T02:54:36.577Z,0.86
2022-10-30T02:55:39.451Z,0.91
2022-10-30T02:56:42.734Z,1.01
2022-10-30T02:57:46.122Z,0.96
2022-10-30T02:58:49.206Z,1.20
2022-10-30T02:59:52.273Z,1.21
2022-10-30T03:00:55.519Z,1.05
2022-10-30T03:01:58.778Z,0.92
2022-10-30T03:03:02.644Z,1.11
2022-10-30T03:04:05.928Z,1.19
2022-10-30T03:05:08.933Z,0.82
2022-10-30T03:06:11.865Z,0.98
2022-10-30T03:07:14.655Z,1.15
2022-10-30T03:08:17.736Z,1.12
2022-10-30T03:09:21.116Z,1.10
2022-10-30T03:10:24.506Z,1.01
2022-10-30T03:11:27.378Z,0.90
2022-10-30T03:12:30.664Z,0.94
2022-10-30T03:13:33.645Z,1.08
2022-10-30T03:14:36.515Z,0.98
2022-10-30T03:15:40.004Z,1.02
2022-10-30T03:16:43.094Z,0.94
2022-10-30T03:17:46.106Z,0.99
2022-10-30T03:18:49.351Z,1.15
2022-10-30T03:19:52.423Z,0.91
2022-10-30T03:20:55.706Z,1.13
2022-10-30T03:21:59.091Z,1.07
2022-10-30T03:23:02.182Z,1.16
2022-10-30T03:24:05.460Z,1.00
2022-10-30T03:25:08.428Z,1.02
2022-10-30T03:26:11.747Z,1.08
2022-10-30T03:27:14.698Z,0.98
2022-10-30T03:28:17.978Z,0.95
2022-10-30T03:29:20.964Z,0.97
2022-10-30T03:30:23.723Z,1.48
2022-10-30T03:31:27.025Z,1.05
2022-10-30T03:32:30.228Z,1.09
2022-10-30T03:33:34.119Z,1.81
2022-10-30T03:34:36.965Z,1.46
2022-10-30T03:35:39.736Z,1.14
2022-10-30T03:36:43.237Z,1.16
2022-10-30T03:37:46.623Z,1.09
2022-10-30T03:38:50.006Z,1.06
2022-10-30T03:39:53.088Z,1.31
2022-10-30T03:40:56.674Z,1.16
2022-10-30T03:42:00.499Z,1.14
2022-10-30T03:43:03.552Z,1.18
2022-10-30T03:44:06.632Z,1.36
2022-10-30T03:45:09.504Z,1.06
2022-10-30T03:46:12.490Z,1.07
2022-10-30T03:47:15.557Z,1.19
2022-10-30T03:48:18.450Z,0.81
2022-10-30T03:49:21.419Z,1.02
2022-10-30T03:50:24.590Z,0.94
2022-10-30T03:51:27.676Z,1.06
2022-10-30T03:52:30.755Z,1.05
2022-10-30T03:53:33.927Z,1.07
2022-10-30T03:54:36.805Z,1.01
2022-10-30T03:55:39.892Z,0.94
2022-10-30T03:56:43.069Z,1.13
2022-10-30T03:57:46.159Z,1.17
2022-10-30T03:58:49.331Z,0.94
2022-10-30T03:59:52.313Z,0.93
2022-10-30T04:00:55.360Z,1.06
2022-10-30T04:01:58.502Z,0.92
2022-10-30T04:03:02.265Z,0.98
2022-10-30T04:04:05.654Z,1.09
2022-10-30T04:05:08.519Z,1.01
2022-10-30T04:06:11.711Z,0.95
2022-10-30T04:07:15.210Z,1.14
2022-10-30T04:08:18.583Z,0.86
2022-10-30T04:09:21.670Z,0.95
2022-10-30T04:10:24.549Z,1.05
2022-10-30T04:11:27.719Z,0.95
2022-10-30T04:12:30.902Z,1.03
2022-10-30T04:13:33.983Z,1.16
2022-10-30T04:14:37.278Z,1.04
2022-10-30T04:15:40.237Z,1.15
2022-10-30T04:16:43.420Z,1.13
2022-10-30T04:17:46.502Z,1.10
2022-10-30T04:18:49.582Z,1.23
2022-10-30T04:19:53.176Z,1.23
2022-10-30T04:20:56.456Z,1.05
2022-10-30T04:21:59.950Z,1.48
2022-10-30T04:23:03.029Z,1.48
2022-10-30T04:24:06.308Z,1.25
2022-10-30T04:25:09.081Z,1.04
2022-10-30T04:26:12.467Z,0.98
2022-10-30T04:27:15.753Z,1.12
2022-10-30T04:28:18.836Z,1.22
2022-10-30T04:29:22.930Z,0.84
2022-10-30T04:30:26.429Z,0.91
2022-10-30T04:31:29.400Z,1.12
2022-10-30T04:32:32.690Z,1.06
2022-10-30T04:33:35.673Z,1.02
2022-10-30T04:34:39.053Z,1.13
2022-10-30T04:35:42.335Z,1.07
2022-10-30T04:36:45.206Z,1.21
2022-10-30T04:37:48.084Z,1.22
2022-10-30T04:38:51.375Z,1.00
2022-10-30T04:39:54.650Z,1.04
2022-10-30T04:40:57.831Z,1.01
2022-10-30T04:42:01.239Z,1.14
2022-10-30T04:43:04.302Z,1.34
2022-10-30T04:44:07.178Z,1.25
2022-10-30T04:45:15.031Z,1.31
2022-10-30T04:46:15.178Z,1.29
2022-10-30T04:47:18.439Z,1.33
2022-10-30T04:48:21.229Z,0.88
2022-10-30T04:49:24.208Z,1.30
2022-10-30T04:50:27.290Z,1.29
2022-10-30T04:51:30.875Z,1.16
2022-10-30T04:52:34.163Z,1.12
2022-10-30T04:53:37.652Z,1.19
2022-10-30T04:54:41.354Z,1.00
2022-10-30T04:55:45.155Z,1.05
2022-10-30T04:56:48.226Z,0.96
2022-10-30T04:57:51.109Z,1.01
2022-10-30T04:58:54.489Z,1.06
2022-10-30T04:59:57.669Z,1.08
2022-10-30T05:01:03.126Z,0.95
2022-10-30T05:02:05.630Z,1.25
2022-10-30T05:03:09.164Z,1.29
2022-10-30T05:04:12.343Z,1.06
2022-10-30T05:05:15.735Z,1.04
2022-10-30T05:06:19.125Z,1.23
2022-10-30T05:07:22.394Z,1.15
2022-10-30T05:08:25.326Z,1.12
2022-10-30T05:09:28.260Z,1.34
2022-10-30T05:10:31.533Z,1.14
2022-10-30T05:11:35.232Z,1.18
2022-10-30T05:12:38.107Z,1.43
2022-10-30T05:13:41.379Z,1.22
2022-10-30T05:14:44.573Z,1.26
2022-10-30T05:15:47.449Z,1.15
2022-10-30T05:16:50.623Z,1.18
2022-10-30T05:17:55.212Z,1.32
2022-10-30T05:18:58.635Z,1.19
2022-10-30T05:20:01.716Z,1.45
2022-10-30T05:21:04.579Z,1.18
2022-10-30T05:22:08.029Z,1.20
2022-10-30T05:23:11.150Z,1.27
2022-10-30T05:24:13.917Z,1.15
2022-10-30T05:25:17.217Z,1.18
2022-10-30T05:26:20.492Z,1.22
2022-10-30T05:27:23.562Z,1.15
2022-10-30T05:28:27.470Z,1.32
2022-10-30T05:29:30.656Z,1.26
2022-10-30T05:30:33.421Z,1.28
2022-10-30T05:31:36.498Z,1.43
2022-10-30T05:32:39.691Z,1.35
2022-10-30T05:33:43.784Z,1.26
2022-10-30T05:34:47.080Z,1.32
2022-10-30T05:35:50.457Z,1.35
2022-10-30T05:36:54.255Z,1.25
2022-10-30T05:37:58.455Z,1.44
2022-10-30T05:39:02.090Z,1.11
2022-10-30T05:40:05.460Z,1.12
2022-10-30T05:41:09.334Z,1.18
2022-10-30T05:42:14.040Z,1.36
2022-10-30T05:43:17.639Z,1.20
2022-10-30T05:44:29.223Z,1.19
2022-10-30T05:45:25.338Z,1.14
2022-10-30T05:46:28.326Z,1.03
2022-10-30T05:47:31.711Z,1.16
2022-10-30T05:48:35.405Z,1.16
2022-10-30T05:49:38.171Z,1.36
2022-10-30T05:50:43.582Z,1.28
2022-10-30T05:51:46.478Z,1.06
2022-10-30T05:52:49.871Z,1.05
2022-10-30T05:53:53.232Z,1.01
2022-10-30T05:54:56.341Z,0.95
2022-10-30T05:56:02.696Z,1.07
2022-10-30T05:57:05.567Z,1.09
2022-10-30T05:58:08.956Z,1.25
2022-10-30T05:59:12.583Z,1.30
2022-10-30T06:00:15.618Z,1.22
2022-10-30T06:01:18.940Z,1.42
2022-10-30T06:02:22.954Z,1.14
2022-10-30T06:03:26.814Z,1.25
2022-10-30T06:04:29.681Z,1.08
2022-10-30T06:05:32.756Z,1.19
2022-10-30T06:06:35.956Z,1.15
2022-10-30T06:07:39.538Z,1.38
2022-10-30T06:08:42.788Z,1.30
2022-10-30T06:09:47.655Z,1.22
2022-10-30T06:10:50.623Z,1.21
2022-10-30T06:11:53.799Z,1.20
2022-10-30T06:12:57.321Z,1.13
2022-10-30T06:14:00.567Z,1.20
2022-10-30T06:15:03.965Z,1.28
2022-10-30T06:16:07.255Z,1.07
2022-10-30T06:17:10.731Z,1.37
2022-10-30T06:18:13.630Z,1.43
2022-10-30T06:19:18.531Z,1.06
2022-10-30T06:20:21.913Z,1.36
2022-10-30T06:21:32.112Z,1.31
2022-10-30T06:22:40.547Z,1.35
2022-10-30T06:23:44.055Z,1.10
2022-10-30T06:24:47.339Z,1.11
2022-10-30T06:25:50.318Z,1.28
2022-10-30T06:26:58.431Z,1.25
2022-10-30T06:28:02.027Z,1.28
2022-10-30T06:29:06.274Z,1.26
2022-10-30T06:30:09.291Z,1.11
2022-10-30T06:31:12.529Z,1.13
2022-10-30T06:32:15.580Z,1.30
2022-10-30T06:33:19.785Z,1.26
2022-10-30T06:34:30.650Z,1.06
2022-10-30T06:35:33.554Z,1.22
2022-10-30T06:36:36.993Z,1.32
2022-10-30T06:37:40.365Z,1.21
2022-10-30T06:38:44.304Z,1.28
2022-10-30T06:39:48.863Z,1.21
2022-10-30T06:40:52.394Z,1.53
2022-10-30T06:42:02.062Z,1.24
2022-10-30T06:43:10.103Z,1.25
2022-10-30T06:44:19.106Z,1.41
2022-10-30T06:45:22.603Z,1.38
2022-10-30T06:46:30.520Z,1.08
2022-10-30T06:47:31.712Z,1.29
2022-10-30T06:48:40.269Z,1.30
2022-10-30T06:49:50.167Z,1.39
2022-10-30T06:50:53.462Z,1.39
2022-10-30T06:51:57.470Z,1.19
2022-10-30T06:53:00.773Z,1.18
2022-10-30T06:54:03.776Z,1.37
2022-10-30T06:55:07.528Z,1.20
2022-10-30T06:56:10.563Z,1.09
2022-10-30T06:57:14.101Z,1.20
2022-10-30T06:58:17.383Z,1.15
2022-10-30T06:59:20.565Z,1.25
2022-10-30T07:00:23.976Z,1.74
2022-10-30T07:01:27.227Z,1.35
2022-10-30T07:02:30.702Z,1.37
2022-10-30T07:03:34.527Z,1.24
2022-10-30T07:04:37.848Z,1.46
2022-10-30T07:05:41.499Z,1.38
2022-10-30T07:06:44.674Z,1.46
2022-10-30T07:07:53.628Z,1.41
2022-10-30T07:08:56.470Z,1.48
2022-10-30T07:09:59.659Z,1.58
2022-10-30T07:11:02.722Z,1.48
2022-10-30T07:12:07.232Z,1.53
2022-10-30T07:13:10.763Z,1.61
2022-10-30T07:14:14.354Z,1.92
2022-10-30T07:15:19.652Z,2.64
2022-10-30T07:16:24.174Z,2.07
2022-10-30T07:17:27.341Z,1.89
2022-10-30T07:18:30.217Z,2.95
2022-10-30T07:19:33.917Z,2.72
2022-10-30T07:20:37.547Z,1.77
2022-10-30T07:21:40.373Z,2.01
2022-10-30T07:22:43.663Z,2.18
2022-10-30T07:23:50.188Z,1.68
2022-10-30T07:24:53.511Z,1.60
2022-10-30T07:26:03.359Z,1.50
2022-10-30T07:27:01.923Z,1.55
2022-10-30T07:28:06.079Z,1.61
2022-10-30T07:29:09.310Z,1.39
2022-10-30T07:30:12.873Z,1.53
2022-10-30T07:31:24.093Z,1.29
2022-10-30T07:32:22.043Z,1.45
2022-10-30T07:33:25.423Z,1.47
2022-10-30T07:34:28.605Z,1.80
2022-10-30T07:35:31.591Z,1.86
2022-10-30T07:36:34.463Z,1.32
2022-10-30T07:37:37.326Z,1.25
2022-10-30T07:38:40.505Z,1.61
2022-10-30T07:39:43.581Z,1.78
2022-10-30T07:40:46.570Z,1.41
2022-10-30T07:41:50.338Z,1.40
2022-10-30T07:42:53.740Z,1.33
2022-10-30T07:43:56.515Z,1.50
2022-10-30T07:44:59.643Z,1.58
2022-10-30T07:46:03.085Z,1.71
2022-10-30T07:47:05.963Z,1.78
2022-10-30T07:48:09.572Z,1.62
2022-10-30T07:49:12.429Z,1.85
2022-10-30T07:50:15.926Z,1.82
2022-10-30T07:51:25.803Z,1.48
2022-10-30T07:52:29.349Z,1.57
2022-10-30T07:53:32.425Z,1.48
2022-10-30T07:54:35.606Z,1.40
2022-10-30T07:55:39.092Z,1.57
2022-10-30T07:56:42.284Z,1.50
2022-10-30T07:57:53.553Z,1.44
2022-10-30T07:58:56.633Z,1.40
2022-10-30T08:00:02.900Z,1.28
2022-10-30T08:01:04.486Z,1.56
2022-10-30T08:02:07.634Z,1.65
2022-10-30T08:03:16.756Z,1.27
2022-10-30T08:04:20.733Z,1.45
2022-10-30T08:05:28.848Z,1.42
2022-10-30T08:06:29.601Z,1.57
2022-10-30T08:07:32.776Z,1.60
2022-10-30T08:08:40.374Z,1.43
2022-10-30T08:09:41.243Z,1.57
2022-10-30T08:10:44.528Z,1.61
2022-10-30T08:11:47.624Z,1.58
2022-10-30T08:12:50.998Z,1.51
2022-10-30T08:13:53.970Z,1.57
2022-10-30T08:14:57.159Z,1.65
2022-10-30T08:16:06.695Z,1.77
2022-10-30T08:17:09.959Z,1.72
2022-10-30T08:18:18.095Z,1.92
2022-10-30T08:19:20.732Z,1.65
2022-10-30T08:20:24.010Z,1.68
2022-10-30T08:21:27.736Z,1.60
2022-10-30T08:22:30.799Z,1.72
2022-10-30T08:23:34.282Z,1.72
2022-10-30T08:24:37.661Z,1.77
2022-10-30T08:25:44.641Z,1.51
2022-10-30T08:26:54.074Z,1.66
2022-10-30T08:28:09.419Z,1.65
2022-10-30T08:29:13.233Z,1.68
2022-10-30T08:30:19.704Z,1.46
2022-10-30T08:31:23.794Z,1.52
2022-10-30T08:32:27.657Z,1.98
2022-10-30T08:33:38.550Z,1.90
2022-10-30T08:34:53.817Z,1.93
2022-10-30T08:36:02.365Z,1.88
2022-10-30T08:37:05.111Z,1.73
2022-10-30T08:38:08.298Z,1.68
2022-10-30T08:40:32.688Z,1.72
2022-10-30T08:41:36.699Z,2.08
2022-10-30T08:42:40.569Z,1.74
2022-10-30T08:43:44.996Z,1.73
2022-10-30T08:44:48.883Z,1.64
2022-10-30T08:45:52.615Z,1.88
2022-10-30T08:47:11.393Z,2.44
2022-10-30T08:48:14.191Z,2.34
2022-10-30T08:49:17.375Z,2.18
2022-10-30T08:50:29.075Z,1.90
2022-10-30T08:51:32.441Z,2.06
2022-10-30T08:52:44.426Z,1.97
2022-10-30T08:53:48.232Z,1.40
2022-10-30T08:54:51.931Z,1.55
2022-10-30T08:56:02.481Z,1.69
2022-10-30T08:57:14.989Z,1.75
2022-10-30T08:58:18.163Z,1.54
2022-10-30T09:00:43.052Z,1.54
2022-10-30T09:01:46.490Z,1.49
2022-10-30T09:02:49.619Z,1.89
2022-10-30T09:03:52.596Z,1.78
2022-10-30T09:05:01.678Z,2.09
2022-10-30T09:06:04.934Z,1.80
2022-10-30T09:07:13.060Z,1.85
2022-10-30T09:08:15.889Z,1.71
2022-10-30T09:09:18.895Z,1.58
2022-10-30T09:10:24.426Z,1.89
2022-10-30T09:11:28.282Z,1.99
2022-10-30T09:12:34.163Z,1.72
2022-10-30T09:13:37.334Z,1.98
2022-10-30T09:14:48.578Z,1.88
2022-10-30T09:15:54.020Z,1.87
2022-10-30T09:16:57.200Z,1.83
2022-10-30T09:18:03.791Z,1.88
2022-10-30T09:19:07.050Z,1.79
2022-10-30T09:20:10.796Z,1.94
2022-10-30T09:21:16.792Z,1.94
2022-10-30T09:22:20.073Z,1.84
2022-10-30T09:23:23.357Z,1.65
2022-10-30T09:24:26.647Z,1.79
2022-10-30T09:25:29.929Z,1.84
2022-10-30T09:26:33.002Z,1.84
2022-10-30T09:27:35.875Z,1.67
2022-10-30T09:28:39.292Z,1.81
2022-10-30T09:29:42.558Z,1.92
2022-10-30T09:30:45.746Z,1.85
2022-10-30T09:31:49.442Z,1.83
2022-10-30T09:32:55.015Z,1.68
2022-10-30T09:34:03.258Z,2.08
2022-10-30T09:35:06.147Z,2.02
2022-10-30T09:36:09.014Z,1.92
2022-10-30T09:37:19.628Z,1.99
2022-10-30T09:38:23.382Z,2.07
2022-10-30T09:39:26.662Z,2.09
2022-10-30T09:40:29.939Z,2.02
2022-10-30T09:41:32.933Z,2.04
2022-10-30T09:42:35.896Z,1.85
2022-10-30T09:43:38.935Z,2.18
2022-10-30T09:44:45.825Z,2.37
2022-10-30T09:45:47.817Z,1.86
2022-10-30T09:46:50.772Z,1.73
2022-10-30T09:47:53.561Z,1.88
2022-10-30T09:48:57.225Z,1.94
2022-10-30T09:50:00.420Z,2.04
2022-10-30T09:51:04.112Z,1.99
2022-10-30T09:52:07.187Z,1.92
2022-10-30T09:53:10.785Z,2.07
2022-10-30T09:54:13.764Z,2.14
2022-10-30T09:55:16.733Z,1.86
2022-10-30T09:56:20.344Z,2.02
2022-10-30T09:57:23.509Z,2.00
2022-10-30T09:58:26.896Z,2.07
2022-10-30T09:59:30.964Z,2.35
2022-10-30T10:00:34.794Z,2.07
2022-10-30T10:01:37.880Z,2.04
2022-10-30T10:02:41.061Z,2.45
2022-10-30T10:03:44.468Z,2.14
2022-10-30T10:04:47.440Z,1.89
2022-10-30T10:05:52.140Z,1.91
2022-10-30T10:07:06.485Z,1.84
2022-10-30T10:08:09.559Z,2.25
2022-10-30T10:09:12.644Z,2.19
2022-10-30T10:10:15.674Z,2.15
2022-10-30T10:11:19.216Z,2.05
2022-10-30T10:12:22.291Z,1.80
2022-10-30T10:13:25.364Z,2.18
2022-10-30T10:14:28.759Z,1.89
2022-10-30T10:15:32.452Z,2.18
2022-10-30T10:16:36.371Z,2.06
2022-10-30T10:17:39.869Z,1.95
2022-10-30T10:18:42.914Z,1.97
2022-10-30T10:19:45.992Z,2.28
2022-10-30T10:20:50.935Z,2.30
2022-10-30T10:21:54.297Z,2.01
2022-10-30T10:22:57.809Z,2.01
2022-10-30T10:24:01.505Z,1.86
2022-10-30T10:25:04.665Z,2.10
2022-10-30T10:26:08.050Z,2.03
2022-10-30T10:27:11.749Z,1.88
2022-10-30T10:28:15.549Z,1.80
2022-10-30T10:29:19.342Z,1.79
2022-10-30T10:30:23.247Z,1.84
2022-10-30T10:31:26.327Z,1.61
2022-10-30T10:32:29.405Z,1.56
2022-10-30T10:33:32.790Z,1.97
2022-10-30T10:34:36.172Z,1.81
2022-10-30T10:35:40.060Z,1.93
2022-10-30T10:36:43.069Z,1.89
2022-10-30T10:37:45.913Z,1.82
2022-10-30T10:38:49.615Z,1.79
2022-10-30T10:39:52.696Z,1.88
2022-10-30T10:40:56.191Z,1.95
2022-10-30T10:41:59.466Z,1.72
2022-10-30T10:43:02.950Z,2.17
2022-10-30T10:44:06.360Z,1.84
2022-10-30T10:45:09.723Z,1.71
2022-10-30T10:46:13.022Z,1.98
2022-10-30T10:47:16.205Z,2.30
2022-10-30T10:48:19.374Z,1.87
2022-10-30T10:49:23.290Z,1.97
2022-10-30T10:50:26.672Z,2.25
2022-10-30T10:51:29.739Z,1.92
2022-10-30T10:52:33.128Z,1.83
2022-10-30T10:53:36.205Z,1.84
2022-10-30T10:54:39.093Z,2.01
2022-10-30T10:55:42.263Z,1.90
2022-10-30T10:56:45.547Z,1.95
2022-10-30T10:57:48.839Z,2.01
2022-10-30T10:58:52.336Z,2.31
2022-10-30T10:59:59.285Z,2.08
2022-10-30T11:01:02.455Z,1.94
2022-10-30T11:02:05.739Z,1.86
2022-10-30T11:03:09.317Z,2.06
2022-10-30T11:04:12.221Z,1.84
2022-10-30T11:05:15.612Z,1.55
2022-10-30T11:06:19.116Z,1.78
2022-10-30T11:07:34.351Z,2.01
2022-10-30T11:08:38.070Z,1.62
2022-10-30T11:09:41.660Z,1.61
2022-10-30T11:10:45.671Z,1.65
2022-10-30T11:11:48.734Z,2.01
2022-10-30T11:12:51.811Z,2.07
2022-10-30T11:13:54.993Z,1.78
2022-10-30T11:14:57.872Z,1.86
2022-10-30T11:16:01.460Z,1.91
2022-10-30T11:17:04.955Z,1.85
2022-10-30T11:18:11.043Z,1.68
2022-10-30T11:19:13.979Z,1.52
2022-10-30T11:20:17.786Z,1.63
2022-10-30T11:21:25.672Z,1.60
2022-10-30T11:22:28.336Z,1.76
2022-10-30T11:23:31.434Z,1.42
2022-10-30T11:24:34.381Z,1.87
2022-10-30T11:25:38.086Z,1.95
2022-10-30T11:26:44.128Z,1.68
2022-10-30T11:27:47.209Z,1.69
2022-10-30T11:28:50.700Z,1.75
2022-10-30T11:29:53.800Z,1.76
2022-10-30T11:30:57.576Z,1.68
2022-10-30T11:32:00.969Z,1.76
2022-10-30T11:33:03.743Z,1.59
2022-10-30T11:34:07.232Z,1.41
2022-10-30T11:35:10.507Z,1.42
2022-10-30T11:36:15.722Z,1.57
2022-10-30T11:37:18.946Z,1.47
2022-10-30T11:38:22.312Z,1.33
2022-10-30T11:39:25.797Z,1.63
2022-10-30T11:40:29.186Z,1.72
2022-10-30T11:41:32.366Z,1.56
2022-10-30T11:42:36.766Z,1.74
2022-10-30T11:43:40.579Z,1.69
2022-10-30T11:44:43.865Z,1.48
2022-10-30T11:45:47.044Z,1.43
2022-10-30T11:46:50.018Z,1.70
2022-10-30T11:47:54.457Z,1.64
2022-10-30T11:48:57.937Z,1.55
2022-10-30T11:50:00.789Z,1.68
2022-10-30T11:51:12.505Z,1.88
2022-10-30T11:52:15.341Z,1.88
2022-10-30T11:53:18.313Z,1.72
2022-10-30T11:54:21.193Z,1.48
2022-10-30T11:55:24.273Z,1.86
2022-10-30T11:56:27.246Z,1.65
2022-10-30T11:57:30.227Z,1.65
2022-10-30T11:58:33.723Z,1.50
2022-10-30T11:59:36.901Z,1.81
2022-10-30T12:00:40.494Z,1.69
2022-10-30T12:01:43.684Z,1.53
2022-10-30T12:02:57.824Z,1.38
2022-10-30T12:04:00.783Z,2.18
2022-10-30T12:05:03.765Z,2.42
2022-10-30T12:06:06.843Z,1.56
2022-10-30T12:07:10.027Z,1.56
2022-10-30T12:08:13.214Z,1.68
2022-10-30T12:09:16.192Z,1.64
2022-10-30T12:10:19.174Z,1.72
2022-10-30T12:11:22.140Z,1.48
2022-10-30T12:12:25.625Z,1.58
2022-10-30T12:13:28.712Z,1.48
2022-10-30T12:14:32.093Z,1.45
2022-10-30T12:15:35.597Z,1.58
2022-10-30T12:16:38.872Z,1.51
2022-10-30T12:17:42.257Z,1.67
2022-10-30T12:18:45.334Z,1.88
2022-10-30T12:19:48.710Z,1.51
2022-10-30T12:20:52.717Z,1.50
2022-10-30T12:21:55.698Z,1.44
2022-10-30T12:22:59.352Z,1.52
2022-10-30T12:24:02.891Z,1.70
2022-10-30T12:25:06.072Z,2.05
2022-10-30T12:26:09.250Z,1.58
2022-10-30T12:27:14.795Z,1.51
2022-10-30T12:28:17.138Z,1.79
2022-10-30T12:29:20.522Z,1.91
2022-10-30T12:30:23.807Z,1.48
2022-10-30T12:31:27.103Z,1.58
2022-10-30T12:32:37.095Z,1.47
2022-10-30T12:33:37.969Z,1.41
2022-10-30T12:34:41.052Z,1.61
2022-10-30T12:35:44.332Z,1.89
2022-10-30T12:36:47.516Z,2.18
2022-10-30T12:37:50.805Z,2.08
2022-10-30T12:38:53.770Z,1.63
2022-10-30T12:39:56.958Z,1.68
2022-10-30T12:41:00.138Z,1.78
2022-10-30T12:42:05.329Z,1.61
2022-10-30T12:43:08.030Z,1.69
2022-10-30T12:44:11.324Z,1.75
2022-10-30T12:45:14.303Z,1.58
2022-10-30T12:46:17.228Z,1.75
2022-10-30T12:47:19.959Z,2.22
2022-10-30T12:48:22.710Z,1.85
2022-10-30T12:49:25.700Z,1.55
2022-10-30T12:50:28.778Z,1.68
2022-10-30T12:51:32.366Z,1.57
2022-10-30T12:52:35.155Z,1.52
2022-10-30T12:53:38.735Z,1.88
2022-10-30T12:54:41.811Z,1.89
2022-10-30T12:55:45.202Z,1.46
2022-10-30T12:56:48.684Z,1.89
2022-10-30T12:57:51.868Z,1.75
2022-10-30T12:58:55.052Z,1.73
2022-10-30T12:59:58.130Z,1.68
2022-10-30T13:01:01.235Z,1.64
2022-10-30T13:02:04.520Z,1.55
2022-10-30T13:03:07.469Z,1.92
2022-10-30T13:04:10.542Z,1.85
2022-10-30T13:05:13.526Z,1.96
2022-10-30T13:06:16.393Z,2.29
2022-10-30T13:07:19.279Z,1.82
2022-10-30T13:08:22.150Z,1.95
2022-10-30T13:09:25.133Z,1.54
2022-10-30T13:10:28.408Z,1.75
2022-10-30T13:11:31.387Z,1.57
2022-10-30T13:12:34.567Z,1.81
2022-10-30T13:13:37.754Z,1.77
2022-10-30T13:14:41.046Z,1.97
2022-10-30T13:15:44.116Z,1.70
2022-10-30T13:16:47.194Z,1.78
2022-10-30T13:17:50.376Z,1.94
2022-10-30T13:18:53.350Z,1.95
2022-10-30T13:19:56.741Z,2.03
2022-10-30T13:20:59.711Z,2.09
2022-10-30T13:22:03.110Z,2.09
2022-10-30T13:23:06.188Z,1.59
2022-10-30T13:24:09.360Z,1.58
2022-10-30T13:25:12.033Z,1.87
2022-10-30T13:26:15.136Z,2.08
2022-10-30T13:27:17.787Z,2.21
2022-10-30T13:28:23.632Z,1.58
2022-10-30T13:29:26.606Z,1.92
2022-10-30T13:30:29.679Z,1.95
2022-10-30T13:31:32.874Z,1.83
2022-10-30T13:32:35.739Z,1.88
2022-10-30T13:33:38.716Z,1.97
2022-10-30T13:34:41.693Z,1.93
2022-10-30T13:35:44.777Z,1.79
2022-10-30T13:36:47.446Z,1.96
2022-10-30T13:37:50.314Z,2.04
2022-10-30T13:38:53.197Z,2.06
2022-10-30T13:39:56.070Z,2.10
2022-10-30T13:40:58.832Z,1.78
2022-10-30T13:42:01.717Z,2.06
2022-10-30T13:43:04.990Z,2.22
2022-10-30T13:44:07.769Z,2.00
2022-10-30T13:45:10.747Z,1.89
2022-10-30T13:46:13.516Z,1.96
2022-10-30T13:47:16.396Z,2.00
2022-10-30T13:48:19.374Z,1.85
2022-10-30T13:49:22.142Z,2.10
2022-10-30T13:50:25.020Z,2.17
2022-10-30T13:51:27.791Z,2.05
2022-10-30T13:52:30.771Z,2.24
2022-10-30T13:53:33.438Z,1.98
2022-10-30T13:54:36.515Z,1.96
2022-10-30T13:55:39.289Z,1.92
2022-10-30T13:56:42.264Z,2.13
2022-10-30T13:57:45.147Z,2.25
2022-10-30T13:58:48.113Z,1.87
2022-10-30T13:59:51.193Z,1.92
2022-10-30T14:00:54.271Z,1.77
2022-10-30T14:02:00.725Z,1.93
2022-10-30T14:03:02.720Z,2.25
2022-10-30T14:04:06.170Z,2.19
2022-10-30T14:05:09.049Z,2.10
2022-10-30T14:06:11.831Z,2.02
2022-10-30T14:07:14.812Z,2.04
2022-10-30T14:08:17.717Z,1.97
2022-10-30T14:09:20.657Z,1.89
2022-10-30T14:10:23.626Z,2.02